sensor_id;sensor_type;location;lat;lon;timestamp;P1;durP1;ratioP1;P2;durP2;ratioP2
39782;SDS011;25462;51.164;17.100;2023-02-01T00:03:29;3.90;;;0.80;;
39782;SDS011;25462;51.164;17.100;2023-02-01T00:08:33;3.00;;;0.80;;
39782;SDS011;25462;51.164;17.100;2023-02-01T00:13:39;5.40;;;1.20;;
39782;SDS011;25462;51.164;17.100;2023-02-01T00:18:45;6.20;;;1.00;;
39782;SDS011;25462;51.164;17.100;2023-02-01T00:23:50;5.00;;;0.90;;
39782;SDS011;25462;51.164;17.100;2023-02-01T00:28:55;5.00;;;0.90;;
39782;SDS011;25462;51.164;17.100;2023-02-01T00:33:59;7.30;;;1.20;;
39782;SDS011;25462;51.164;17.100;2023-02-01T00:39:03;6.80;;;1.00;;
39782;SDS011;25462;51.164;17.100;2023-02-01T00:44:07;6.80;;;1.30;;
39782;SDS011;25462;51.164;17.100;2023-02-01T00:49:11;7.30;;;1.40;;
39782;SDS011;25462;51.164;17.100;2023-02-01T00:54:15;6.80;;;1.40;;
39782;SDS011;25462;51.164;17.100;2023-02-01T00:59:19;8.50;;;1.40;;
39782;SDS011;25462;51.164;17.100;2023-02-01T01:04:22;7.20;;;1.60;;
39782;SDS011;25462;51.164;17.100;2023-02-01T01:09:26;4.90;;;1.20;;
39782;SDS011;25462;51.164;17.100;2023-02-01T01:14:30;9.50;;;3.80;;
39782;SDS011;25462;51.164;17.100;2023-02-01T01:19:34;9.60;;;1.40;;
39782;SDS011;25462;51.164;17.100;2023-02-01T01:24:38;6.20;;;1.30;;
39782;SDS011;25462;51.164;17.100;2023-02-01T01:29:43;8.80;;;2.30;;
39782;SDS011;25462;51.164;17.100;2023-02-01T01:34:46;6.80;;;1.90;;
39782;SDS011;25462;51.164;17.100;2023-02-01T01:39:51;3.10;;;0.90;;
39782;SDS011;25462;51.164;17.100;2023-02-01T01:45:02;3.70;;;1.00;;
39782;SDS011;25462;51.164;17.100;2023-02-01T01:50:13;4.40;;;1.00;;
39782;SDS011;25462;51.164;17.100;2023-02-01T01:55:20;8.00;;;1.40;;
39782;SDS011;25462;51.164;17.100;2023-02-01T02:00:25;9.00;;;1.10;;
39782;SDS011;25462;51.164;17.100;2023-02-01T02:05:30;6.60;;;1.50;;
39782;SDS011;25462;51.164;17.100;2023-02-01T02:10:34;12.30;;;2.40;;
39782;SDS011;25462;51.164;17.100;2023-02-01T02:26:58;4.50;;;1.50;;
39782;SDS011;25462;51.164;17.100;2023-02-01T02:32:15;9.00;;;1.70;;
39782;SDS011;25462;51.164;17.100;2023-02-01T02:43:48;18.30;;;2.60;;
39782;SDS011;25462;51.164;17.100;2023-02-01T02:49:17;11.90;;;2.40;;
39782;SDS011;25462;51.164;17.100;2023-02-01T02:54:26;11.30;;;2.20;;
39782;SDS011;25462;51.164;17.100;2023-02-01T02:59:50;14.10;;;2.40;;
39782;SDS011;25462;51.164;17.100;2023-02-01T03:05:16;15.60;;;2.40;;
39782;SDS011;25462;51.164;17.100;2023-02-01T03:10:32;15.70;;;3.10;;
39782;SDS011;25462;51.164;17.100;2023-02-01T03:22:11;16.90;;;2.60;;
39782;SDS011;25462;51.164;17.100;2023-02-01T03:27:19;19.50;;;3.10;;
39782;SDS011;25462;51.164;17.100;2023-02-01T03:32:29;12.00;;;2.20;;
39782;SDS011;25462;51.164;17.100;2023-02-01T03:38:01;14.60;;;2.30;;
39782;SDS011;25462;51.164;17.100;2023-02-01T03:43:14;14.20;;;2.30;;
39782;SDS011;25462;51.164;17.100;2023-02-01T03:48:20;16.20;;;2.40;;
39782;SDS011;25462;51.164;17.100;2023-02-01T03:53:27;12.60;;;2.80;;
39782;SDS011;25462;51.164;17.100;2023-02-01T03:58:31;10.10;;;2.40;;
39782;SDS011;25462;51.164;17.100;2023-02-01T04:03:35;14.70;;;3.50;;
39782;SDS011;25462;51.164;17.100;2023-02-01T04:08:39;14.60;;;2.80;;
39782;SDS011;25462;51.164;17.100;2023-02-01T04:13:44;12.00;;;2.30;;
39782;SDS011;25462;51.164;17.100;2023-02-01T04:18:48;9.70;;;2.00;;
39782;SDS011;25462;51.164;17.100;2023-02-01T04:23:53;16.50;;;2.50;;
39782;SDS011;25462;51.164;17.100;2023-02-01T04:28:57;12.50;;;3.10;;
39782;SDS011;25462;51.164;17.100;2023-02-01T04:34:00;24.80;;;3.80;;
39782;SDS011;25462;51.164;17.100;2023-02-01T04:39:04;15.10;;;2.20;;
39782;SDS011;25462;51.164;17.100;2023-02-01T04:44:12;10.70;;;2.70;;
39782;SDS011;25462;51.164;17.100;2023-02-01T04:49:17;17.00;;;2.90;;
39782;SDS011;25462;51.164;17.100;2023-02-01T04:54:21;18.40;;;3.80;;
39782;SDS011;25462;51.164;17.100;2023-02-01T04:59:26;12.50;;;2.40;;
39782;SDS011;25462;51.164;17.100;2023-02-01T05:04:32;12.70;;;3.00;;
39782;SDS011;25462;51.164;17.100;2023-02-01T05:09:36;14.00;;;2.40;;
39782;SDS011;25462;51.164;17.100;2023-02-01T05:14:40;11.10;;;2.50;;
39782;SDS011;25462;51.164;17.100;2023-02-01T05:19:44;12.80;;;2.40;;
39782;SDS011;25462;51.164;17.100;2023-02-01T05:24:47;13.80;;;2.10;;
39782;SDS011;25462;51.164;17.100;2023-02-01T05:29:51;10.90;;;2.70;;
39782;SDS011;25462;51.164;17.100;2023-02-01T05:34:55;9.10;;;2.50;;
39782;SDS011;25462;51.164;17.100;2023-02-01T05:39:59;12.10;;;2.80;;
39782;SDS011;25462;51.164;17.100;2023-02-01T05:45:03;12.20;;;2.20;;
39782;SDS011;25462;51.164;17.100;2023-02-01T05:50:08;11.20;;;2.10;;
39782;SDS011;25462;51.164;17.100;2023-02-01T05:55:12;10.60;;;2.30;;
39782;SDS011;25462;51.164;17.100;2023-02-01T06:00:16;7.60;;;1.80;;
39782;SDS011;25462;51.164;17.100;2023-02-01T06:05:24;11.60;;;2.20;;
39782;SDS011;25462;51.164;17.100;2023-02-01T06:10:28;13.10;;;2.40;;
39782;SDS011;25462;51.164;17.100;2023-02-01T06:15:32;17.80;;;2.70;;
39782;SDS011;25462;51.164;17.100;2023-02-01T06:20:36;12.90;;;2.60;;
39782;SDS011;25462;51.164;17.100;2023-02-01T06:25:40;16.70;;;2.50;;
39782;SDS011;25462;51.164;17.100;2023-02-01T06:30:44;10.80;;;2.10;;
39782;SDS011;25462;51.164;17.100;2023-02-01T06:35:57;11.50;;;2.70;;
39782;SDS011;25462;51.164;17.100;2023-02-01T06:41:02;9.40;;;1.80;;
39782;SDS011;25462;51.164;17.100;2023-02-01T06:46:13;11.60;;;2.60;;
39782;SDS011;25462;51.164;17.100;2023-02-01T06:51:19;11.90;;;2.50;;
39782;SDS011;25462;51.164;17.100;2023-02-01T06:56:30;14.20;;;2.90;;
39782;SDS011;25462;51.164;17.100;2023-02-01T07:01:35;7.30;;;2.00;;
39782;SDS011;25462;51.164;17.100;2023-02-01T07:06:39;13.10;;;2.70;;
39782;SDS011;25462;51.164;17.100;2023-02-01T07:11:44;10.00;;;2.00;;
39782;SDS011;25462;51.164;17.100;2023-02-01T07:16:48;12.70;;;2.30;;
39782;SDS011;25462;51.164;17.100;2023-02-01T07:21:52;10.20;;;2.60;;
39782;SDS011;25462;51.164;17.100;2023-02-01T07:26:56;13.10;;;2.70;;
39782;SDS011;25462;51.164;17.100;2023-02-01T07:32:00;13.30;;;2.50;;
39782;SDS011;25462;51.164;17.100;2023-02-01T07:37:05;16.60;;;3.30;;
39782;SDS011;25462;51.164;17.100;2023-02-01T07:42:09;15.00;;;2.70;;
39782;SDS011;25462;51.164;17.100;2023-02-01T07:47:13;21.10;;;2.60;;
39782;SDS011;25462;51.164;17.100;2023-02-01T07:52:17;13.30;;;2.50;;
39782;SDS011;25462;51.164;17.100;2023-02-01T07:57:20;12.00;;;3.10;;
39782;SDS011;25462;51.164;17.100;2023-02-01T08:02:24;13.00;;;3.90;;
39782;SDS011;25462;51.164;17.100;2023-02-01T08:07:28;16.10;;;4.40;;
39782;SDS011;25462;51.164;17.100;2023-02-01T08:12:32;10.90;;;2.90;;
39782;SDS011;25462;51.164;17.100;2023-02-01T08:17:36;14.20;;;2.90;;
39782;SDS011;25462;51.164;17.100;2023-02-01T08:22:40;11.90;;;3.10;;
39782;SDS011;25462;51.164;17.100;2023-02-01T08:27:44;10.90;;;2.80;;
39782;SDS011;25462;51.164;17.100;2023-02-01T08:32:48;13.30;;;2.60;;
39782;SDS011;25462;51.164;17.100;2023-02-01T08:37:51;13.80;;;2.80;;
39782;SDS011;25462;51.164;17.100;2023-02-01T08:42:56;12.70;;;2.70;;
39782;SDS011;25462;51.164;17.100;2023-02-01T08:48:01;17.70;;;3.30;;
39782;SDS011;25462;51.164;17.100;2023-02-01T08:53:04;14.30;;;3.30;;
39782;SDS011;25462;51.164;17.100;2023-02-01T08:58:08;10.70;;;2.40;;
39782;SDS011;25462;51.164;17.100;2023-02-01T09:03:12;9.20;;;2.90;;
39782;SDS011;25462;51.164;17.100;2023-02-01T09:08:16;12.00;;;2.30;;
39782;SDS011;25462;51.164;17.100;2023-02-01T09:13:22;12.60;;;3.40;;
39782;SDS011;25462;51.164;17.100;2023-02-01T09:18:26;9.40;;;2.30;;
39782;SDS011;25462;51.164;17.100;2023-02-01T09:23:30;12.50;;;2.40;;
39782;SDS011;25462;51.164;17.100;2023-02-01T09:28:34;13.30;;;2.50;;
39782;SDS011;25462;51.164;17.100;2023-02-01T09:33:38;17.50;;;3.20;;
39782;SDS011;25462;51.164;17.100;2023-02-01T09:38:43;9.50;;;2.20;;
39782;SDS011;25462;51.164;17.100;2023-02-01T09:55:03;10.60;;;3.10;;
39782;SDS011;25462;51.164;17.100;2023-02-01T10:00:30;5.80;;;1.60;;
39782;SDS011;25462;51.164;17.100;2023-02-01T10:05:49;9.90;;;3.50;;
39782;SDS011;25462;51.164;17.100;2023-02-01T10:11:19;6.30;;;1.70;;
39782;SDS011;25462;51.164;17.100;2023-02-01T10:21:59;9.10;;;2.20;;
39782;SDS011;25462;51.164;17.100;2023-02-01T10:27:12;5.20;;;1.80;;
39782;SDS011;25462;51.164;17.100;2023-02-01T10:32:22;11.00;;;2.50;;
39782;SDS011;25462;51.164;17.100;2023-02-01T10:37:32;10.50;;;2.70;;
39782;SDS011;25462;51.164;17.100;2023-02-01T10:42:38;7.40;;;2.30;;
39782;SDS011;25462;51.164;17.100;2023-02-01T10:47:43;10.50;;;2.70;;
39782;SDS011;25462;51.164;17.100;2023-02-01T10:52:48;9.70;;;2.20;;
39782;SDS011;25462;51.164;17.100;2023-02-01T10:58:03;7.30;;;2.10;;
39782;SDS011;25462;51.164;17.100;2023-02-01T11:03:21;10.40;;;2.00;;
39782;SDS011;25462;51.164;17.100;2023-02-01T11:08:34;9.20;;;2.90;;
39782;SDS011;25462;51.164;17.100;2023-02-01T11:13:54;6.60;;;2.30;;
39782;SDS011;25462;51.164;17.100;2023-02-01T11:19:05;8.80;;;2.30;;
39782;SDS011;25462;51.164;17.100;2023-02-01T11:24:19;9.70;;;2.40;;
39782;SDS011;25462;51.164;17.100;2023-02-01T11:29:52;8.00;;;3.00;;
39782;SDS011;25462;51.164;17.100;2023-02-01T11:35:03;9.80;;;2.90;;
39782;SDS011;25462;51.164;17.100;2023-02-01T11:45:40;6.00;;;2.30;;
39782;SDS011;25462;51.164;17.100;2023-02-01T11:56:18;8.80;;;3.40;;
39782;SDS011;25462;51.164;17.100;2023-02-01T12:06:57;6.70;;;2.60;;
39782;SDS011;25462;51.164;17.100;2023-02-01T12:24:17;10.20;;;2.50;;
39782;SDS011;25462;51.164;17.100;2023-02-01T12:41:01;4.40;;;2.00;;
39782;SDS011;25462;51.164;17.100;2023-02-01T12:46:40;3.60;;;1.80;;
39782;SDS011;25462;51.164;17.100;2023-02-01T12:51:48;6.00;;;2.10;;
39782;SDS011;25462;51.164;17.100;2023-02-01T12:56:54;4.60;;;1.80;;
39782;SDS011;25462;51.164;17.100;2023-02-01T13:12:36;5.90;;;2.00;;
39782;SDS011;25462;51.164;17.100;2023-02-01T13:17:42;7.60;;;1.90;;
39782;SDS011;25462;51.164;17.100;2023-02-01T13:23:11;4.00;;;1.90;;
39782;SDS011;25462;51.164;17.100;2023-02-01T13:39:59;5.10;;;1.80;;
39782;SDS011;25462;51.164;17.100;2023-02-01T13:45:30;5.20;;;2.00;;
39782;SDS011;25462;51.164;17.100;2023-02-01T13:50:37;6.00;;;2.20;;
39782;SDS011;25462;51.164;17.100;2023-02-01T13:55:45;5.50;;;1.90;;
39782;SDS011;25462;51.164;17.100;2023-02-01T14:00:51;7.20;;;2.40;;
39782;SDS011;25462;51.164;17.100;2023-02-01T14:27:45;4.90;;;1.30;;
39782;SDS011;25462;51.164;17.100;2023-02-01T14:32:49;4.30;;;1.60;;
39782;SDS011;25462;51.164;17.100;2023-02-01T14:37:54;4.20;;;1.40;;
39782;SDS011;25462;51.164;17.100;2023-02-01T14:43:03;4.30;;;1.40;;
39782;SDS011;25462;51.164;17.100;2023-02-01T14:53:14;9.70;;;2.00;;
39782;SDS011;25462;51.164;17.100;2023-02-01T15:04:13;9.60;;;2.70;;
39782;SDS011;25462;51.164;17.100;2023-02-01T15:09:26;8.10;;;2.40;;
39782;SDS011;25462;51.164;17.100;2023-02-01T15:14:42;6.40;;;2.00;;
39782;SDS011;25462;51.164;17.100;2023-02-01T15:19:53;5.20;;;2.00;;
39782;SDS011;25462;51.164;17.100;2023-02-01T15:24:58;13.70;;;2.10;;
39782;SDS011;25462;51.164;17.100;2023-02-01T15:30:06;8.00;;;2.00;;
39782;SDS011;25462;51.164;17.100;2023-02-01T15:40:55;10.30;;;2.50;;
39782;SDS011;25462;51.164;17.100;2023-02-01T15:46:24;11.30;;;2.50;;
39782;SDS011;25462;51.164;17.100;2023-02-01T15:51:48;8.00;;;2.20;;
39782;SDS011;25462;51.164;17.100;2023-02-01T15:56:54;7.40;;;2.20;;
39782;SDS011;25462;51.164;17.100;2023-02-01T16:02:02;8.50;;;2.50;;
39782;SDS011;25462;51.164;17.100;2023-02-01T16:07:20;9.70;;;2.40;;
39782;SDS011;25462;51.164;17.100;2023-02-01T16:18:10;6.90;;;2.60;;
39782;SDS011;25462;51.164;17.100;2023-02-01T16:23:18;8.10;;;2.00;;
39782;SDS011;25462;51.164;17.100;2023-02-01T16:28:23;6.40;;;2.20;;
39782;SDS011;25462;51.164;17.100;2023-02-01T16:33:28;7.70;;;2.30;;
39782;SDS011;25462;51.164;17.100;2023-02-01T16:38:33;8.40;;;2.40;;
39782;SDS011;25462;51.164;17.100;2023-02-01T16:43:38;6.90;;;2.60;;
39782;SDS011;25462;51.164;17.100;2023-02-01T16:48:44;8.20;;;2.60;;
39782;SDS011;25462;51.164;17.100;2023-02-01T16:53:53;6.40;;;2.50;;
39782;SDS011;25462;51.164;17.100;2023-02-01T16:58:58;5.30;;;2.30;;
39782;SDS011;25462;51.164;17.100;2023-02-01T17:04:02;11.90;;;2.90;;
39782;SDS011;25462;51.164;17.100;2023-02-01T17:09:09;8.30;;;2.80;;
39782;SDS011;25462;51.164;17.100;2023-02-01T17:14:15;7.80;;;2.80;;
39782;SDS011;25462;51.164;17.100;2023-02-01T17:19:24;11.00;;;3.70;;
39782;SDS011;25462;51.164;17.100;2023-02-01T17:24:31;9.40;;;4.30;;
39782;SDS011;25462;51.164;17.100;2023-02-01T17:29:50;11.70;;;3.90;;
39782;SDS011;25462;51.164;17.100;2023-02-01T17:34:59;10.80;;;4.20;;
39782;SDS011;25462;51.164;17.100;2023-02-01T17:40:06;8.60;;;3.90;;
39782;SDS011;25462;51.164;17.100;2023-02-01T17:45:32;9.40;;;3.40;;
39782;SDS011;25462;51.164;17.100;2023-02-01T17:50:47;9.10;;;4.40;;
39782;SDS011;25462;51.164;17.100;2023-02-01T17:56:01;10.10;;;4.00;;
39782;SDS011;25462;51.164;17.100;2023-02-01T18:01:15;9.80;;;4.00;;
39782;SDS011;25462;51.164;17.100;2023-02-01T18:06:23;11.20;;;4.60;;
39782;SDS011;25462;51.164;17.100;2023-02-01T18:11:30;10.30;;;3.70;;
39782;SDS011;25462;51.164;17.100;2023-02-01T18:16:47;11.20;;;3.40;;
39782;SDS011;25462;51.164;17.100;2023-02-01T18:21:53;9.50;;;3.50;;
39782;SDS011;25462;51.164;17.100;2023-02-01T18:27:03;10.50;;;3.00;;
39782;SDS011;25462;51.164;17.100;2023-02-01T18:32:12;9.20;;;3.20;;
39782;SDS011;25462;51.164;17.100;2023-02-01T18:37:19;9.80;;;3.20;;
39782;SDS011;25462;51.164;17.100;2023-02-01T18:42:25;10.00;;;2.90;;
39782;SDS011;25462;51.164;17.100;2023-02-01T18:47:37;8.50;;;2.60;;
39782;SDS011;25462;51.164;17.100;2023-02-01T18:52:42;7.60;;;2.80;;
39782;SDS011;25462;51.164;17.100;2023-02-01T18:57:49;7.90;;;3.50;;
39782;SDS011;25462;51.164;17.100;2023-02-01T19:02:56;8.00;;;2.80;;
39782;SDS011;25462;51.164;17.100;2023-02-01T19:08:13;9.30;;;2.50;;
39782;SDS011;25462;51.164;17.100;2023-02-01T19:13:29;8.40;;;3.00;;
39782;SDS011;25462;51.164;17.100;2023-02-01T19:18:40;9.40;;;3.50;;
39782;SDS011;25462;51.164;17.100;2023-02-01T19:23:47;8.20;;;3.00;;
39782;SDS011;25462;51.164;17.100;2023-02-01T19:28:58;10.00;;;2.70;;
39782;SDS011;25462;51.164;17.100;2023-02-01T19:34:12;8.70;;;2.70;;
39782;SDS011;25462;51.164;17.100;2023-02-01T19:39:27;6.90;;;2.70;;
39782;SDS011;25462;51.164;17.100;2023-02-01T19:44:45;6.20;;;2.30;;
39782;SDS011;25462;51.164;17.100;2023-02-01T19:50:23;6.30;;;2.30;;
39782;SDS011;25462;51.164;17.100;2023-02-01T19:55:49;5.10;;;2.00;;
39782;SDS011;25462;51.164;17.100;2023-02-01T20:00:58;4.60;;;1.80;;
39782;SDS011;25462;51.164;17.100;2023-02-01T20:06:07;3.60;;;1.50;;
39782;SDS011;25462;51.164;17.100;2023-02-01T20:11:30;3.90;;;1.90;;
39782;SDS011;25462;51.164;17.100;2023-02-01T20:16:40;5.70;;;1.80;;
39782;SDS011;25462;51.164;17.100;2023-02-01T20:21:49;7.60;;;2.00;;
39782;SDS011;25462;51.164;17.100;2023-02-01T20:26:56;4.60;;;1.90;;
39782;SDS011;25462;51.164;17.100;2023-02-01T20:32:03;4.80;;;2.00;;
39782;SDS011;25462;51.164;17.100;2023-02-01T20:37:12;2.90;;;1.40;;
39782;SDS011;25462;51.164;17.100;2023-02-01T20:42:22;3.10;;;1.30;;
39782;SDS011;25462;51.164;17.100;2023-02-01T20:47:36;4.00;;;1.50;;
39782;SDS011;25462;51.164;17.100;2023-02-01T20:52:42;3.00;;;1.20;;
39782;SDS011;25462;51.164;17.100;2023-02-01T20:57:48;4.30;;;1.50;;
39782;SDS011;25462;51.164;17.100;2023-02-01T21:02:59;3.70;;;1.60;;
39782;SDS011;25462;51.164;17.100;2023-02-01T21:08:14;3.70;;;1.40;;
39782;SDS011;25462;51.164;17.100;2023-02-01T21:13:22;6.90;;;1.60;;
39782;SDS011;25462;51.164;17.100;2023-02-01T21:18:27;3.00;;;1.40;;
39782;SDS011;25462;51.164;17.100;2023-02-01T21:23:34;4.70;;;1.50;;
39782;SDS011;25462;51.164;17.100;2023-02-01T21:33:51;5.10;;;1.50;;
39782;SDS011;25462;51.164;17.100;2023-02-01T21:38:55;4.50;;;1.30;;
39782;SDS011;25462;51.164;17.100;2023-02-01T21:44:07;3.90;;;1.40;;
39782;SDS011;25462;51.164;17.100;2023-02-01T21:49:12;2.90;;;1.60;;
39782;SDS011;25462;51.164;17.100;2023-02-01T21:54:19;2.60;;;1.20;;
39782;SDS011;25462;51.164;17.100;2023-02-01T21:59:23;2.50;;;1.30;;
39782;SDS011;25462;51.164;17.100;2023-02-01T22:04:27;3.60;;;1.10;;
39782;SDS011;25462;51.164;17.100;2023-02-01T22:09:32;3.30;;;1.50;;
39782;SDS011;25462;51.164;17.100;2023-02-01T22:14:38;4.00;;;1.70;;
39782;SDS011;25462;51.164;17.100;2023-02-01T22:19:59;6.50;;;1.90;;
39782;SDS011;25462;51.164;17.100;2023-02-01T22:25:08;3.60;;;1.70;;
39782;SDS011;25462;51.164;17.100;2023-02-01T22:30:22;3.90;;;1.50;;
39782;SDS011;25462;51.164;17.100;2023-02-01T22:35:28;4.90;;;1.70;;
39782;SDS011;25462;51.164;17.100;2023-02-01T22:40:57;4.20;;;1.70;;
39782;SDS011;25462;51.164;17.100;2023-02-01T22:46:15;4.40;;;1.70;;
39782;SDS011;25462;51.164;17.100;2023-02-01T22:51:35;4.00;;;1.70;;
39782;SDS011;25462;51.164;17.100;2023-02-01T22:56:47;6.10;;;2.00;;
39782;SDS011;25462;51.164;17.100;2023-02-01T23:01:51;14.80;;;3.80;;
39782;SDS011;25462;51.164;17.100;2023-02-01T23:06:55;8.40;;;1.80;;
39782;SDS011;25462;51.164;17.100;2023-02-01T23:11:59;8.40;;;2.40;;
39782;SDS011;25462;51.164;17.100;2023-02-01T23:17:03;5.30;;;1.60;;
39782;SDS011;25462;51.164;17.100;2023-02-01T23:22:07;7.10;;;1.90;;
39782;SDS011;25462;51.164;17.100;2023-02-01T23:27:12;11.40;;;2.40;;
39782;SDS011;25462;51.164;17.100;2023-02-01T23:32:16;9.30;;;1.90;;
39782;SDS011;25462;51.164;17.100;2023-02-01T23:37:21;12.90;;;2.20;;
39782;SDS011;25462;51.164;17.100;2023-02-01T23:42:26;11.50;;;2.10;;
39782;SDS011;25462;51.164;17.100;2023-02-01T23:47:30;9.70;;;1.90;;
39782;SDS011;25462;51.164;17.100;2023-02-01T23:52:34;10.00;;;2.10;;
39782;SDS011;25462;51.164;17.100;2023-02-01T23:57:37;12.50;;;2.10;;
